< < Back
Terminal Aerodrome Forecast


Current Version              Previous Versions:   1  2  3  4  5  6  7  8  9  

Terminal Aerodrome Forecast

770
FTUS42 KFFC 271930 AAA
TAFATL
TAF AMD
KATL 271930Z 2720/2824 30015G25KT P6SM BKN040
     FM280000 32010G20KT P6SM SCT040
     FM280400 32008KT P6SM FEW040
     FM281200 33005KT P6SM SKC
     FM282100 23006KT P6SM SKC=

Latest METAR

225
SAUS70 KWBC 271900
MTRATL
METAR KATL 271852Z 32014KT 10SM BKN040 BKN049 07/M03 A3027 RMK AO2
SLP256 T00721028


USA.gov is the U.S. government's official web portal to all federal, state and local government web resources and services.